Regatta — V7DM3 — position and weather

sailwx.info

Track history (hours):
 
Tides and Currents Weather Stations Pressure Air Temp Water Temp Dewpoint Dewpoint Depression Visibility Wind Speed Wind Dir Waves Ship Positions

Regatta

Last reported at 2017-Jun-23 11:00 UTC. Time now 2017-Jun-23 18:54 UTC.
Position N 56°00' W 134°48'.

Length 180 m; draft 5.7 m.

Type: Passenger vessel. MMSI: 538001664.

Wind from 340 at 15 knots

Barometer 1029.5 mb
Air temperature 11.0 ° C
Visibility: greater than 10.8 NM
Dewpoint 9.2 ° C
Water temperature 10.0 ° C

Date/timePositionNaut miles runAvg speedWind from/ knotsBaromVisibWave heightAir tempDewpointWater temp
2017-Jun-23 11:00N 56°00' W 134°48'35510.6 340 / 151029.510.8 11.0 9.210.0
2017-Jun-22 01:22N 51°13' W 128°56'618.2
2017-Jun-22 01:00N 51°11' W 128°46'918.5
2017-Jun-22 00:31N 51°08' W 128°33'918.7
2017-Jun-22 00:00N 51°05' W 128°18'11816.5
2017-Jun-21 16:53N 50°20' W 125°26'616.8
2017-Jun-21 16:30N 50°15' W 125°23'714.6
2017-Jun-21 16:01N 50°07' W 125°21'611.7
2017-Jun-21 15:30N 50°03' W 125°14'713.8
2017-Jun-21 15:00N 49°57' W 125°09'714.4
2017-Jun-21 14:30N 49°53' W 125°01'1414.1
2017-Jun-21 13:30N 49°42' W 124°46'815.1
2017-Jun-21 13:00N 49°37' W 124°37'815.6
2017-Jun-21 12:29N 49°31' W 124°29'715.5
2017-Jun-21 12:00N 49°26' W 124°21'816.3
2017-Jun-21 11:29N 49°23' W 124°09'816.5
2017-Jun-21 10:59N 49°20' W 123°57'714.7
2017-Jun-21 10:30N 49°17' W 123°46'714.8
2017-Jun-21 10:00N 49°14' W 123°37'715.1
2017-Jun-21 09:30N 49°09' W 123°28'815.5
2017-Jun-21 09:00N 49°04' W 123°19'816.5
2017-Jun-21 08:30N 48°58' W 123°10'917.0
2017-Jun-21 08:00N 48°52' W 123°01'714.8
2017-Jun-21 07:30N 48°45' W 123°05'816.0
2017-Jun-21 07:00N 48°40' W 123°15'815.5
2017-Jun-21 06:30N 48°33' W 123°12'816.6
2017-Jun-21 06:00N 48°25' W 123°11'816.3
2017-Jun-21 05:30N 48°22' W 123°23'815.8
2017-Jun-21 05:00N 48°14' W 123°27'612.9
2017-Jun-21 04:30N 48°09' W 123°22'612.4
2017-Jun-21 04:00N 48°11' W 123°14'815.5
2017-Jun-21 03:30N 48°12' W 123°02'815.6
2017-Jun-21 02:59N 48°12' W 122°50'914.2
2017-Jun-21 02:23N 48°07' W 122°40'815.5
2017-Jun-21 01:52N 47°59' W 122°36'615.4
2017-Jun-21 01:30N 47°56' W 122°29'816.0
2017-Jun-21 01:00N 47°48' W 122°27'815.5
2017-Jun-21 00:30N 47°40' W 122°27'510.9
2017-Jun-21 00:00N 47°37' W 122°21'0 0.0
2017-Jun-20 23:30N 47°37' W 122°21'0 0.0
2017-Jun-20 23:00N 47°37' W 122°21'0 0.0
2017-Jun-20 22:28N 47°37' W 122°21'0 0.0
2017-Jun-20 22:00N 47°37' W 122°21'0 0.0
2017-Jun-20 21:30N 47°37' W 122°21'0 0.0
2017-Jun-20 20:58N 47°37' W 122°21'0 0.0
2017-Jun-20 20:28N 47°37' W 122°21'0 0.0
2017-Jun-20 19:58N 47°37' W 122°21'0 0.0
2017-Jun-20 19:28N 47°37' W 122°21'0 0.0
2017-Jun-20 18:58N 47°37' W 122°21'0 0.0
2017-Jun-20 18:28N 47°37' W 122°21'0 0.0
2017-Jun-20 17:57N 47°37' W 122°21'0 0.0
2017-Jun-20 17:28N 47°37' W 122°21'0 0.0
2017-Jun-20 17:00N 47°37' W 122°21'0 0.0
2017-Jun-20 16:28N 47°37' W 122°21'0 0.0
2017-Jun-20 15:58N 47°37' W 122°21'0 0.0
2017-Jun-20 15:30N 47°37' W 122°21'0 0.0
2017-Jun-20 14:57N 47°37' W 122°21'0 0.0
2017-Jun-20 14:00N 47°37' W 122°21'0 0.0
2017-Jun-20 13:30N 47°37' W 122°21'1 1.3
2017-Jun-20 13:00N 47°36' W 122°22'5 9.6
2017-Jun-20 12:30N 47°40' W 122°27'612.2
2017-Jun-20 12:01N 47°46' W 122°27'713.4
2017-Jun-20 11:30N 47°52' W 122°29'612.2
2017-Jun-20 11:00N 47°57' W 122°34'612.1
2017-Jun-20 10:30N 48°02' W 122°39'812.0
2017-Jun-20 09:52N 48°09' W 122°44'513.1
2017-Jun-20 09:30N 48°11' W 122°51'815.6
2017-Jun-20 09:00N 48°12' W 123°02'714.2
2017-Jun-20 08:30N 48°11' W 123°13'714.3
2017-Jun-20 08:00N 48°10' W 123°23'511.0
2017-Jun-20 07:30N 48°13' W 123°30'713.1
2017-Jun-20 07:00N 48°19' W 123°27'611.4
2017-Jun-20 06:30N 48°25' W 123°24'0 0.0
2017-Jun-19 19:39N 48°25' W 123°23'0 0.5
2017-Jun-19 19:30N 48°25' W 123°24'2 3.5
2017-Jun-19 19:00N 48°23' W 123°24'815.6
2017-Jun-19 18:30N 48°16' W 123°27'815.9
2017-Jun-19 18:00N 48°14' W 123°38'815.1
2017-Jun-19 17:29N 48°14' W 123°50'715.4
2017-Jun-19 17:00N 48°15' W 124°01'815.5
2017-Jun-19 16:30N 48°18' W 124°12'815.0
2017-Jun-19 16:00N 48°22' W 124°22'815.4
2017-Jun-19 15:30N 48°25' W 124°32'917.0
2017-Jun-19 15:00N 48°29' W 124°44'815.9
2017-Jun-19 14:30N 48°29' W 124°56'1615.6
2017-Jun-19 13:30N 48°32' W 125°19'816.0
2017-Jun-19 13:00N 48°36' W 125°29'816.4
2017-Jun-19 12:30N 48°40' W 125°40'816.5
2017-Jun-19 12:00N 48°44' W 125°51'816.7
2017-Jun-19 11:30N 48°48' W 126°02'816.9
2017-Jun-19 11:00N 48°53' W 126°12'816.8
2017-Jun-19 10:30N 48°58' W 126°22'917.5
2017-Jun-19 10:00N 49°04' W 126°32'918.7
2017-Jun-19 09:30N 49°10' W 126°43'918.8
2017-Jun-19 09:00N 49°16' W 126°55'4020.1
2017-Jun-19 07:00N 49°42' W 127°42'16916.9 140 / 191017.5 13.013.012.4
2017-Jun-18 21:00N 51°30' W 131°06'20518.6 090 / 251012.5 5.4 12.511.612.0
2017-Jun-18 10:00N 54°24' W 134°06'5217.4 040 / 231018.510.8 11.0 7.211.0
2017-Jun-18 07:00N 55°12' W 134°42'193 8.1 030 / 161019.5 11.0 8.211.0
2017-Jun-17 07:06N 58°20' W 136°04'28 1.3
2017-Jun-16 09:00N 58°06' W 135°18'2317.8 050 / 9999.8 5.4 10.0 8.111.0
2017-Jun-16 07:41N 58°19' W 135°55'316.8
2017-Jun-16 07:29N 58°20' W 136°01'12915.1
2017-Jun-15 23:00N 59°18' W 139°42'73 6.1 350 / 131002.510.8 10.0 8.111.5
2017-Jun-15 11:00N 58°24' W 138°06'6414.5 140 / 101006.010.8 10.0 8.1 9.0
2017-Jun-15 06:34N 58°20' W 136°04'118.2
2017-Jun-15 06:30N 58°20' W 136°01'52 2.4
2017-Jun-14 09:00N 58°12' W 134°24'114 5.2 090 / 31013.510.8 11.0 9.2 9.0
2017-Jun-13 11:00N 56°18' W 134°30'   170 / 121015.010.8 10.0 8.1 9.0
Track history (hours):
 
Tides and Currents Weather Stations Pressure Air Temp Water Temp Dewpoint Dewpoint Depression Visibility Wind Speed Wind Dir Waves Ship Positions

Regatta

Last reported at 2017-Jun-23 11:00 UTC. Time now 2017-Jun-23 18:54 UTC.
Position N 56°00' W 134°48'.

Length 180 m; draft 5.7 m.

Type: Passenger vessel. MMSI: 538001664.

Wind from 340 at 15 knots

Barometer 1029.5 mb
Air temperature 11.0 ° C
Visibility: greater than 10.8 NM
Dewpoint 9.2 ° C
Water temperature 10.0 ° C

Date/timePositionNaut miles runAvg speedWind from/ knotsBaromVisibWave heightAir tempDewpointWater temp
2017-Jun-23 11:00N 56°00' W 134°48'35510.6 340 / 151029.510.8 11.0 9.210.0
2017-Jun-22 01:22N 51°13' W 128°56'618.2
2017-Jun-22 01:00N 51°11' W 128°46'918.5
2017-Jun-22 00:31N 51°08' W 128°33'918.7
2017-Jun-22 00:00N 51°05' W 128°18'11816.5
2017-Jun-21 16:53N 50°20' W 125°26'616.8
2017-Jun-21 16:30N 50°15' W 125°23'714.6
2017-Jun-21 16:01N 50°07' W 125°21'611.7
2017-Jun-21 15:30N 50°03' W 125°14'713.8
2017-Jun-21 15:00N 49°57' W 125°09'714.4
2017-Jun-21 14:30N 49°53' W 125°01'1414.1
2017-Jun-21 13:30N 49°42' W 124°46'815.1
2017-Jun-21 13:00N 49°37' W 124°37'815.6
2017-Jun-21 12:29N 49°31' W 124°29'715.5
2017-Jun-21 12:00N 49°26' W 124°21'816.3
2017-Jun-21 11:29N 49°23' W 124°09'816.5
2017-Jun-21 10:59N 49°20' W 123°57'714.7
2017-Jun-21 10:30N 49°17' W 123°46'714.8
2017-Jun-21 10:00N 49°14' W 123°37'715.1
2017-Jun-21 09:30N 49°09' W 123°28'815.5
2017-Jun-21 09:00N 49°04' W 123°19'816.5
2017-Jun-21 08:30N 48°58' W 123°10'917.0
2017-Jun-21 08:00N 48°52' W 123°01'714.8
2017-Jun-21 07:30N 48°45' W 123°05'816.0
2017-Jun-21 07:00N 48°40' W 123°15'815.5
2017-Jun-21 06:30N 48°33' W 123°12'816.6
2017-Jun-21 06:00N 48°25' W 123°11'816.3
2017-Jun-21 05:30N 48°22' W 123°23'815.8
2017-Jun-21 05:00N 48°14' W 123°27'612.9
2017-Jun-21 04:30N 48°09' W 123°22'612.4
2017-Jun-21 04:00N 48°11' W 123°14'815.5
2017-Jun-21 03:30N 48°12' W 123°02'815.6
2017-Jun-21 02:59N 48°12' W 122°50'914.2
2017-Jun-21 02:23N 48°07' W 122°40'815.5
2017-Jun-21 01:52N 47°59' W 122°36'615.4
2017-Jun-21 01:30N 47°56' W 122°29'816.0
2017-Jun-21 01:00N 47°48' W 122°27'815.5
2017-Jun-21 00:30N 47°40' W 122°27'510.9
2017-Jun-21 00:00N 47°37' W 122°21'0 0.0
2017-Jun-20 23:30N 47°37' W 122°21'0 0.0
2017-Jun-20 23:00N 47°37' W 122°21'0 0.0
2017-Jun-20 22:28N 47°37' W 122°21'0 0.0
2017-Jun-20 22:00N 47°37' W 122°21'0 0.0
2017-Jun-20 21:30N 47°37' W 122°21'0 0.0
2017-Jun-20 20:58N 47°37' W 122°21'0 0.0
2017-Jun-20 20:28N 47°37' W 122°21'0 0.0
2017-Jun-20 19:58N 47°37' W 122°21'0 0.0
2017-Jun-20 19:28N 47°37' W 122°21'0 0.0
2017-Jun-20 18:58N 47°37' W 122°21'0 0.0
2017-Jun-20 18:28N 47°37' W 122°21'0 0.0
2017-Jun-20 17:57N 47°37' W 122°21'0 0.0
2017-Jun-20 17:28N 47°37' W 122°21'0 0.0
2017-Jun-20 17:00N 47°37' W 122°21'0 0.0
2017-Jun-20 16:28N 47°37' W 122°21'0 0.0
2017-Jun-20 15:58N 47°37' W 122°21'0 0.0
2017-Jun-20 15:30N 47°37' W 122°21'0 0.0
2017-Jun-20 14:57N 47°37' W 122°21'0 0.0
2017-Jun-20 14:00N 47°37' W 122°21'0 0.0
2017-Jun-20 13:30N 47°37' W 122°21'1 1.3
2017-Jun-20 13:00N 47°36' W 122°22'5 9.6
2017-Jun-20 12:30N 47°40' W 122°27'612.2
2017-Jun-20 12:01N 47°46' W 122°27'713.4
2017-Jun-20 11:30N 47°52' W 122°29'612.2
2017-Jun-20 11:00N 47°57' W 122°34'612.1
2017-Jun-20 10:30N 48°02' W 122°39'812.0
2017-Jun-20 09:52N 48°09' W 122°44'513.1
2017-Jun-20 09:30N 48°11' W 122°51'815.6
2017-Jun-20 09:00N 48°12' W 123°02'714.2
2017-Jun-20 08:30N 48°11' W 123°13'714.3
2017-Jun-20 08:00N 48°10' W 123°23'511.0
2017-Jun-20 07:30N 48°13' W 123°30'713.1
2017-Jun-20 07:00N 48°19' W 123°27'611.4
2017-Jun-20 06:30N 48°25' W 123°24'0 0.0
2017-Jun-19 19:39N 48°25' W 123°23'0 0.5
2017-Jun-19 19:30N 48°25' W 123°24'2 3.5
2017-Jun-19 19:00N 48°23' W 123°24'815.6
2017-Jun-19 18:30N 48°16' W 123°27'815.9
2017-Jun-19 18:00N 48°14' W 123°38'815.1
2017-Jun-19 17:29N 48°14' W 123°50'715.4
2017-Jun-19 17:00N 48°15' W 124°01'815.5
2017-Jun-19 16:30N 48°18' W 124°12'815.0
2017-Jun-19 16:00N 48°22' W 124°22'815.4
2017-Jun-19 15:30N 48°25' W 124°32'917.0
2017-Jun-19 15:00N 48°29' W 124°44'815.9
2017-Jun-19 14:30N 48°29' W 124°56'1615.6
2017-Jun-19 13:30N 48°32' W 125°19'816.0
2017-Jun-19 13:00N 48°36' W 125°29'816.4
2017-Jun-19 12:30N 48°40' W 125°40'816.5
2017-Jun-19 12:00N 48°44' W 125°51'816.7
2017-Jun-19 11:30N 48°48' W 126°02'816.9
2017-Jun-19 11:00N 48°53' W 126°12'816.8
2017-Jun-19 10:30N 48°58' W 126°22'917.5
2017-Jun-19 10:00N 49°04' W 126°32'918.7
2017-Jun-19 09:30N 49°10' W 126°43'918.8
2017-Jun-19 09:00N 49°16' W 126°55'4020.1
2017-Jun-19 07:00N 49°42' W 127°42'16916.9 140 / 191017.5 13.013.012.4
2017-Jun-18 21:00N 51°30' W 131°06'20518.6 090 / 251012.5 5.4 12.511.612.0
2017-Jun-18 10:00N 54°24' W 134°06'5217.4 040 / 231018.510.8 11.0 7.211.0
2017-Jun-18 07:00N 55°12' W 134°42'193 8.1 030 / 161019.5 11.0 8.211.0
2017-Jun-17 07:06N 58°20' W 136°04'28 1.3
2017-Jun-16 09:00N 58°06' W 135°18'2317.8 050 / 9999.8 5.4 10.0 8.111.0
2017-Jun-16 07:41N 58°19' W 135°55'316.8
2017-Jun-16 07:29N 58°20' W 136°01'12915.1
2017-Jun-15 23:00N 59°18' W 139°42'73 6.1 350 / 131002.510.8 10.0 8.111.5
2017-Jun-15 11:00N 58°24' W 138°06'6414.5 140 / 101006.010.8 10.0 8.1 9.0
2017-Jun-15 06:34N 58°20' W 136°04'118.2
2017-Jun-15 06:30N 58°20' W 136°01'52 2.4
2017-Jun-14 09:00N 58°12' W 134°24'114 5.2 090 / 31013.510.8 11.0 9.2 9.0
2017-Jun-13 11:00N 56°18' W 134°30'   170 / 121015.010.8 10.0 8.1 9.0

Dump ship's entire track history